Time;durP1;ratioP1;P1;durP2;ratioP2;P2;SDS_P1;SDS_P2;PMS_P1;PMS_P2;Temp;Humidity;BMP_temperature;BMP_pressure;BME280_temperature;BME280_humidity;BME280_pressure;Samples;Min_cycle;Max_cycle;Signal;HPM_P1;HPM_P2
2021/12/29 00:00:54;;;;;;;40.40;18.80;;;5.70;99.80;;;;;;4971329;28;20498;-66
2021/12/29 00:03:19;;;;;;;30.45;19.20;;;5.70;99.80;;;;;;4970046;28;20022;-67
2021/12/29 00:05:45;;;;;;;34.75;20.25;;;5.70;99.80;;;;;;4972270;28;20033;-67
2021/12/29 00:08:10;;;;;;;32.97;18.35;;;5.70;99.90;;;;;;4970950;28;20030;-68
2021/12/29 00:10:36;;;;;;;33.20;19.17;;;5.70;99.90;;;;;;4971999;28;20035;-69
2021/12/29 00:13:04;;;;;;;39.80;22.17;;;5.70;99.90;;;;;;4971666;28;20434;-68
2021/12/29 00:15:30;;;;;;;38.28;21.05;;;5.70;99.90;;;;;;4972432;28;20030;-68
2021/12/29 00:17:57;;;;;;;41.83;23.02;;;5.70;99.90;;;;;;4967018;28;20031;-68
2021/12/29 00:20:28;;;;;;;39.03;21.35;;;5.70;99.90;;;;;;4972070;28;20500;-69
2021/12/29 00:22:58;;;;;;;39.83;22.23;;;5.70;99.90;;;;;;4967675;28;20074;-68
2021/12/29 00:25:25;;;;;;;41.80;21.52;;;5.70;99.90;;;;;;4954205;28;20077;-68
2021/12/29 00:27:50;;;;;;;39.67;21.08;;;5.70;99.90;;;;;;4969113;28;20023;-68
2021/12/29 00:30:16;;;;;;;36.88;19.90;;;5.80;99.90;;;;;;4955552;28;20034;-68
2021/12/29 00:32:41;;;;;;;40.67;21.92;;;5.70;99.90;;;;;;4963744;28;20034;-69
2021/12/29 00:35:11;;;;;;;34.30;18.80;;;5.70;99.90;;;;;;4969714;28;20027;-68
2021/12/29 00:37:37;;;;;;;35.42;20.42;;;5.70;99.90;;;;;;4975886;28;20035;-68
2021/12/29 00:40:03;;;;;;;32.28;20.02;;;5.80;99.90;;;;;;4975180;28;20093;-68
2021/12/29 00:42:28;;;;;;;34.85;20.23;;;5.80;99.90;;;;;;4976015;28;20027;-68
2021/12/29 00:44:54;;;;;;;40.10;21.52;;;5.80;99.90;;;;;;4974374;28;20498;-68
2021/12/29 00:47:20;;;;;;;34.63;21.02;;;5.80;99.90;;;;;;4975744;28;20569;-68
2021/12/29 00:49:46;;;;;;;35.38;18.80;;;5.80;99.90;;;;;;4975236;28;20121;-68
2021/12/29 00:52:13;;;;;;;38.65;20.58;;;5.70;99.90;;;;;;4974629;28;20035;-68
2021/12/29 00:54:41;;;;;;;33.20;19.20;;;5.80;99.90;;;;;;4975173;28;20039;-68
2021/12/29 00:57:06;;;;;;;36.40;19.25;;;5.80;99.90;;;;;;4975480;28;20119;-68
2021/12/29 00:59:32;;;;;;;34.22;19.23;;;5.80;99.90;;;;;;4975515;28;20183;-68
2021/12/29 01:01:58;;;;;;;35.38;19.98;;;5.80;99.90;;;;;;4975055;28;20646;-68
2021/12/29 01:04:24;;;;;;;33.13;20.00;;;5.80;99.90;;;;;;4975377;28;20034;-68
2021/12/29 01:06:49;;;;;;;36.58;20.05;;;5.80;99.90;;;;;;4975594;28;20525;-68
2021/12/29 01:09:15;;;;;;;36.72;20.00;;;5.90;99.90;;;;;;4975428;28;20036;-68
2021/12/29 01:11:41;;;;;;;34.55;20.23;;;5.90;99.90;;;;;;4975535;28;20042;-68
2021/12/29 01:14:08;;;;;;;33.47;20.70;;;5.90;99.90;;;;;;4971347;28;20023;-69
2021/12/29 01:19:07;;;;;;;34.08;19.17;;;5.90;99.90;;;;;;4974551;28;20048;-68
2021/12/29 01:21:33;;;;;;;35.70;19.17;;;5.90;99.90;;;;;;4975405;28;20023;-68
2021/12/29 01:24:00;;;;;;;34.90;19.27;;;5.90;99.90;;;;;;4974897;28;20037;-68
2021/12/29 01:26:25;;;;;;;36.40;19.85;;;5.90;99.90;;;;;;4975535;28;20382;-68
2021/12/29 01:28:51;;;;;;;34.10;18.42;;;5.90;99.90;;;;;;4974569;28;20031;-69
2021/12/29 01:31:16;;;;;;;35.40;19.10;;;5.90;99.90;;;;;;4974981;28;20389;-69
2021/12/29 01:33:42;;;;;;;34.72;18.35;;;5.90;99.90;;;;;;4973168;28;20023;-69
2021/12/29 01:36:07;;;;;;;38.40;20.27;;;5.90;99.90;;;;;;4974763;28;20546;-69
2021/12/29 01:38:33;;;;;;;31.73;17.95;;;5.90;99.90;;;;;;4970838;28;20041;-69
2021/12/29 01:40:58;;;;;;;33.50;18.20;;;5.90;99.90;;;;;;4955485;28;20027;-69
2021/12/29 01:43:24;;;;;;;33.63;18.65;;;5.90;99.90;;;;;;4965773;28;20019;-68
2021/12/29 01:45:50;;;;;;;31.45;17.33;;;5.90;99.90;;;;;;4969201;28;20031;-68
2021/12/29 01:48:16;;;;;;;33.85;19.05;;;5.90;99.90;;;;;;4974351;28;20023;-68
2021/12/29 01:50:48;;;;;;;34.10;18.77;;;5.90;99.90;;;;;;4974862;28;20093;-69
2021/12/29 01:53:22;;;;;;;33.50;19.13;;;5.90;99.90;;;;;;4970908;28;20065;-69
2021/12/29 01:55:48;;;;;;;32.03;18.10;;;5.90;99.90;;;;;;4955419;28;20027;-69
2021/12/29 01:58:13;;;;;;;34.65;18.98;;;5.90;99.90;;;;;;4966466;28;20082;-68
2021/12/29 02:00:41;;;;;;;34.47;17.25;;;5.90;99.90;;;;;;4974427;28;20082;-67
2021/12/29 02:03:08;;;;;;;31.55;18.02;;;5.90;99.90;;;;;;4974094;28;20453;-68
2021/12/29 02:05:40;;;;;;;32.55;17.70;;;5.90;99.90;;;;;;4975028;28;20034;-68
2021/12/29 02:08:06;;;;;;;32.92;17.65;;;5.90;99.90;;;;;;4973994;28;20027;-68
2021/12/29 02:10:41;;;;;;;34.78;20.33;;;5.90;99.90;;;;;;4974733;28;20371;-69
2021/12/29 02:13:07;;;;;;;32.72;18.25;;;5.90;99.90;;;;;;4972708;28;20027;-69
2021/12/29 02:15:32;;;;;;;29.75;18.15;;;5.90;99.90;;;;;;4974474;28;20045;-69
2021/12/29 02:17:58;;;;;;;33.20;18.48;;;5.90;99.90;;;;;;4973206;28;20035;-69
2021/12/29 02:20:23;;;;;;;32.03;18.42;;;5.90;99.90;;;;;;4974299;28;20030;-69
2021/12/29 02:23:00;;;;;;;30.55;18.63;;;5.90;99.90;;;;;;4974320;28;20058;-69
2021/12/29 02:25:46;;;;;;;33.33;19.23;;;5.90;99.90;;;;;;4974841;28;20379;-69
2021/12/29 02:28:13;;;;;;;32.10;18.58;;;6.00;99.90;;;;;;4972275;28;20117;-69
2021/12/29 02:30:39;;;;;;;30.45;18.15;;;6.00;99.90;;;;;;4962068;28;20061;-69
2021/12/29 02:33:06;;;;;;;30.13;17.50;;;6.00;99.90;;;;;;4973395;28;20490;-69
2021/12/29 02:35:32;;;;;;;30.88;17.70;;;6.00;99.90;;;;;;4974459;28;20038;-69
2021/12/29 02:38:00;;;;;;;31.80;17.92;;;6.00;99.90;;;;;;4969446;28;20057;-69
2021/12/29 02:40:26;;;;;;;33.13;18.40;;;6.00;99.90;;;;;;4974424;28;20102;-69
2021/12/29 02:42:51;;;;;;;29.08;17.65;;;6.00;99.90;;;;;;4972702;28;20065;-69
2021/12/29 02:45:21;;;;;;;31.85;16.58;;;6.10;99.90;;;;;;4972388;28;20046;-69
2021/12/29 02:47:47;;;;;;;28.00;16.60;;;6.10;99.90;;;;;;4963163;28;20086;-68
2021/12/29 02:50:17;;;;;;;31.17;17.25;;;6.10;99.90;;;;;;4972758;28;20030;-69
2021/12/29 02:52:44;;;;;;;27.58;15.77;;;6.20;99.90;;;;;;4972615;28;20494;-69
2021/12/29 02:55:11;;;;;;;26.83;16.25;;;6.20;99.90;;;;;;4972593;28;20050;-69
2021/12/29 02:57:37;;;;;;;24.63;15.48;;;6.30;99.90;;;;;;4972855;28;20050;-69
2021/12/29 03:00:05;;;;;;;28.83;15.80;;;6.30;99.90;;;;;;4973673;28;20026;-68
2021/12/29 03:02:30;;;;;;;24.27;14.65;;;6.30;99.90;;;;;;4972673;28;20054;-69
2021/12/29 03:05:00;;;;;;;25.70;15.90;;;6.40;99.90;;;;;;4973371;28;20042;-69
2021/12/29 03:07:26;;;;;;;25.30;14.95;;;6.40;99.90;;;;;;4967861;28;20219;-69
2021/12/29 03:09:51;;;;;;;23.92;14.50;;;6.40;99.90;;;;;;4954365;28;20586;-69
2021/12/29 03:12:17;;;;;;;26.50;15.38;;;6.50;99.90;;;;;;4959018;28;20023;-69
2021/12/29 03:14:57;;;;;;;25.33;14.13;;;6.50;99.90;;;;;;4973124;28;20390;-69
2021/12/29 03:17:23;;;;;;;24.83;14.82;;;6.60;99.90;;;;;;4971725;28;20038;-69
2021/12/29 03:19:49;;;;;;;25.98;15.23;;;6.60;99.90;;;;;;4960627;28;20031;-69
2021/12/29 03:22:14;;;;;;;23.70;14.57;;;6.60;99.90;;;;;;4972807;28;20398;-69
2021/12/29 03:24:40;;;;;;;24.27;13.98;;;6.60;99.90;;;;;;4972717;28;20038;-68
2021/12/29 03:27:06;;;;;;;29.60;17.33;;;6.70;99.90;;;;;;4973082;28;20031;-68
2021/12/29 03:29:31;;;;;;;25.55;15.20;;;6.70;99.90;;;;;;4962920;28;20034;-68
2021/12/29 03:31:59;;;;;;;22.38;14.18;;;6.70;99.90;;;;;;4972600;28;20105;-68
2021/12/29 03:34:25;;;;;;;24.90;14.13;;;6.70;99.90;;;;;;4972468;28;20077;-68
2021/12/29 03:36:50;;;;;;;21.77;13.20;;;6.70;99.90;;;;;;4972870;28;20489;-68
2021/12/29 03:39:17;;;;;;;21.33;12.25;;;6.80;99.90;;;;;;4972125;28;20031;-68
2021/12/29 03:41:42;;;;;;;23.58;13.73;;;6.80;99.90;;;;;;4972853;28;20042;-68
2021/12/29 03:44:08;;;;;;;21.42;13.55;;;6.80;99.90;;;;;;4972241;28;20393;-68
2021/12/29 03:46:33;;;;;;;21.77;13.70;;;6.80;99.90;;;;;;4967173;28;20035;-68
2021/12/29 03:48:59;;;;;;;19.98;13.23;;;6.90;99.90;;;;;;4971958;28;20121;-68
2021/12/29 03:51:25;;;;;;;22.10;13.70;;;6.90;99.90;;;;;;4972648;28;20043;-68
2021/12/29 03:53:50;;;;;;;21.50;13.05;;;6.90;99.90;;;;;;4960827;28;20363;-69
2021/12/29 03:56:16;;;;;;;20.52;12.98;;;6.90;99.90;;;;;;4966409;28;20394;-69
2021/12/29 03:58:44;;;;;;;21.70;13.80;;;6.90;99.90;;;;;;4972365;28;20105;-69
2021/12/29 04:01:11;;;;;;;23.10;12.05;;;6.90;99.90;;;;;;4972379;28;20051;-68
2021/12/29 04:03:38;;;;;;;20.27;11.57;;;6.90;99.90;;;;;;4971744;28;20043;-68
2021/12/29 04:06:03;;;;;;;18.33;12.60;;;7.00;99.90;;;;;;4970468;28;20466;-69
2021/12/29 04:08:29;;;;;;;23.70;14.05;;;6.90;99.90;;;;;;4965882;28;20035;-69
2021/12/29 04:10:54;;;;;;;22.70;14.02;;;7.00;99.90;;;;;;4972486;28;20371;-69
2021/12/29 04:13:21;;;;;;;26.65;14.95;;;6.90;99.80;;;;;;4971037;28;20089;-68
2021/12/29 04:15:47;;;;;;;22.40;12.85;;;6.90;99.80;;;;;;4971881;28;20023;-68
2021/12/29 04:18:26;;;;;;;23.17;13.60;;;6.80;99.80;;;;;;4969598;28;20035;-68
2021/12/29 04:21:02;;;;;;;21.23;13.45;;;6.80;99.80;;;;;;4953385;28;20031;-68
2021/12/29 04:23:34;;;;;;;22.40;13.00;;;6.80;99.80;;;;;;4962135;28;20037;-68
2021/12/29 04:26:01;;;;;;;21.38;12.98;;;6.80;99.90;;;;;;4972462;28;20038;-68
2021/12/29 04:28:28;;;;;;;23.60;12.57;;;6.90;99.90;;;;;;4971431;28;20053;-69
2021/12/29 04:31:01;;;;;;;21.15;12.13;;;6.90;99.90;;;;;;4972085;28;20045;-69
2021/12/29 04:33:28;;;;;;;18.70;12.13;;;6.90;99.90;;;;;;4962877;28;20028;-68
2021/12/29 04:35:54;;;;;;;21.45;12.48;;;6.90;99.90;;;;;;4953410;28;20041;-69
2021/12/29 04:38:21;;;;;;;20.52;12.02;;;6.90;99.90;;;;;;4966964;28;20536;-68
2021/12/29 04:40:49;;;;;;;17.95;11.48;;;7.00;99.90;;;;;;4971773;28;20030;-67
2021/12/29 04:43:16;;;;;;;16.83;10.70;;;7.00;99.90;;;;;;4970866;28;20085;-67
2021/12/29 04:45:42;;;;;;;20.48;11.32;;;7.00;99.90;;;;;;4970169;28;20042;-68
2021/12/29 04:48:12;;;;;;;21.05;12.25;;;7.00;99.90;;;;;;4970568;28;20026;-68
2021/12/29 04:50:39;;;;;;;20.73;13.65;;;7.00;99.90;;;;;;4970533;28;20057;-68
2021/12/29 04:53:07;;;;;;;23.20;11.95;;;7.00;99.90;;;;;;4971631;28;20042;-68
2021/12/29 04:55:33;;;;;;;23.30;11.90;;;7.00;99.90;;;;;;4971574;28;20023;-68
2021/12/29 04:58:00;;;;;;;18.92;11.20;;;7.00;99.90;;;;;;4971430;28;20081;-68
2021/12/29 05:00:28;;;;;;;21.13;12.65;;;7.00;99.90;;;;;;4968568;28;20039;-68
2021/12/29 05:02:55;;;;;;;19.42;10.95;;;7.10;99.90;;;;;;4952923;28;20483;-68
2021/12/29 05:05:37;;;;;;;21.67;13.02;;;7.10;99.90;;;;;;4958726;28;20423;-68
2021/12/29 05:10:47;;;;;;;19.65;11.05;;;7.10;99.90;;;;;;4971927;28;20113;-68
2021/12/29 05:13:14;;;;;;;17.60;11.10;;;7.10;99.90;;;;;;4969955;28;20614;-68
2021/12/29 05:15:39;;;;;;;18.45;10.90;;;7.10;99.90;;;;;;4971850;28;20031;-67
2021/12/29 05:18:05;;;;;;;21.45;11.63;;;7.10;99.90;;;;;;4974559;28;20088;-68
2021/12/29 05:20:31;;;;;;;20.95;10.32;;;7.20;99.90;;;;;;4975538;28;20394;-67
2021/12/29 05:22:58;;;;;;;17.23;10.68;;;7.20;99.90;;;;;;4974419;28;20043;-68
2021/12/29 05:25:25;;;;;;;16.70;10.20;;;7.20;99.90;;;;;;4975607;28;20029;-69
2021/12/29 05:27:51;;;;;;;18.85;10.05;;;7.20;99.90;;;;;;4974105;28;20114;-68
2021/12/29 05:30:17;;;;;;;18.58;10.55;;;7.20;99.90;;;;;;4959908;28;20630;-68
2021/12/29 05:32:43;;;;;;;19.33;11.35;;;7.20;99.90;;;;;;4959059;28;20037;-68
2021/12/29 05:35:09;;;;;;;17.77;10.23;;;7.20;99.90;;;;;;4975435;28;20029;-68
2021/12/29 05:37:35;;;;;;;19.30;10.23;;;7.20;99.90;;;;;;4973154;28;20031;-68
2021/12/29 05:40:00;;;;;;;18.40;10.43;;;7.20;99.90;;;;;;4974796;28;20470;-67
2021/12/29 05:42:26;;;;;;;16.75;10.10;;;7.20;99.90;;;;;;4972402;28;20077;-68
2021/12/29 05:44:52;;;;;;;19.10;11.02;;;7.20;99.90;;;;;;4974945;28;20023;-68
2021/12/29 05:47:17;;;;;;;19.63;9.85;;;7.30;99.90;;;;;;4974296;28;20081;-68
2021/12/29 05:49:43;;;;;;;15.93;9.55;;;7.30;99.90;;;;;;4974230;28;20025;-69
2021/12/29 05:52:08;;;;;;;19.00;10.52;;;7.30;99.90;;;;;;4975107;28;20422;-69
2021/12/29 05:54:34;;;;;;;18.30;9.93;;;7.30;99.90;;;;;;4971089;28;20023;-69
2021/12/29 05:56:59;;;;;;;16.23;9.50;;;7.40;99.90;;;;;;4958943;28;20402;-69
2021/12/29 05:59:25;;;;;;;18.85;10.00;;;7.40;99.90;;;;;;4974239;28;20114;-69
2021/12/29 06:01:50;;;;;;;15.85;9.35;;;7.40;99.90;;;;;;4974031;28;20414;-69
2021/12/29 06:04:16;;;;;;;19.23;9.63;;;7.40;99.90;;;;;;4984993;28;20038;-69
2021/12/29 06:06:41;;;;;;;17.70;9.65;;;7.40;99.90;;;;;;4974326;28;20082;-69
2021/12/29 06:09:07;;;;;;;14.35;8.73;;;7.40;99.90;;;;;;4970993;28;20034;-69
2021/12/29 06:11:33;;;;;;;14.77;9.55;;;7.40;99.90;;;;;;4974385;28;20045;-69
2021/12/29 06:13:58;;;;;;;17.40;9.65;;;7.40;99.90;;;;;;4973220;28;20023;-69
2021/12/29 06:16:24;;;;;;;13.73;9.05;;;7.40;99.90;;;;;;4974306;28;20034;-69
2021/12/29 06:18:49;;;;;;;15.38;9.27;;;7.40;99.90;;;;;;4966331;28;20510;-69
2021/12/29 06:21:16;;;;;;;20.98;9.77;;;7.40;99.90;;;;;;4970123;28;20080;-69
2021/12/29 06:23:46;;;;;;;17.33;9.43;;;7.40;99.90;;;;;;4967306;28;20034;-69
2021/12/29 06:26:12;;;;;;;16.90;9.40;;;7.50;99.90;;;;;;4972795;28;20046;-69
2021/12/29 06:28:38;;;;;;;18.63;9.93;;;7.50;99.90;;;;;;4972525;28;20026;-69
2021/12/29 06:31:04;;;;;;;15.13;9.38;;;7.50;99.90;;;;;;4974056;28;20117;-69
2021/12/29 06:33:29;;;;;;;16.75;9.10;;;7.50;99.90;;;;;;4972588;28;20047;-68
2021/12/29 06:35:55;;;;;;;19.90;9.23;;;7.50;99.90;;;;;;4974135;28;20037;-68
2021/12/29 06:38:21;;;;;;;17.50;9.27;;;7.50;99.90;;;;;;4973117;28;20031;-69
2021/12/29 06:40:46;;;;;;;20.00;10.85;;;7.50;99.90;;;;;;4973251;28;20031;-68
2021/12/29 06:43:12;;;;;;;14.73;9.07;;;7.60;99.90;;;;;;4973165;28;20457;-68
2021/12/29 06:45:37;;;;;;;16.92;8.68;;;7.50;99.90;;;;;;4972854;28;20033;-68
2021/12/29 06:48:03;;;;;;;18.30;9.48;;;7.60;99.90;;;;;;4966010;28;20034;-68
2021/12/29 06:50:28;;;;;;;16.42;9.27;;;7.60;99.90;;;;;;4971867;28;20086;-67
2021/12/29 06:52:55;;;;;;;15.98;9.07;;;7.50;99.90;;;;;;4973454;28;20081;-66
2021/12/29 06:55:20;;;;;;;14.13;8.45;;;7.60;99.90;;;;;;4973955;28;20023;-68
2021/12/29 06:57:46;;;;;;;19.05;8.98;;;7.60;99.90;;;;;;4972856;28;20035;-68
2021/12/29 07:00:13;;;;;;;16.40;10.30;;;7.60;99.90;;;;;;4973144;28;20578;-69
2021/12/29 07:02:39;;;;;;;16.85;9.45;;;7.50;99.90;;;;;;4970844;28;20540;-69
2021/12/29 07:05:05;;;;;;;17.23;9.25;;;7.50;99.90;;;;;;4971095;28;20108;-69
2021/12/29 07:07:31;;;;;;;23.02;10.07;;;7.50;99.90;;;;;;4972153;28;20023;-69
2021/12/29 07:09:56;;;;;;;19.30;9.90;;;7.50;99.90;;;;;;4967267;28;20087;-68
2021/12/29 07:12:22;;;;;;;16.58;8.95;;;7.50;99.90;;;;;;4967619;28;20019;-69
2021/12/29 07:14:47;;;;;;;18.90;9.77;;;7.50;99.90;;;;;;4972920;28;20023;-70
2021/12/29 07:17:13;;;;;;;15.07;9.00;;;7.60;99.90;;;;;;4972611;28;20393;-69
2021/12/29 07:19:39;;;;;;;17.08;9.82;;;7.50;99.90;;;;;;4973091;28;20037;-69
2021/12/29 07:22:06;;;;;;;15.98;9.07;;;7.50;99.90;;;;;;4970342;28;20114;-68
2021/12/29 07:24:32;;;;;;;21.48;9.95;;;7.50;99.90;;;;;;4965403;28;20039;-68
2021/12/29 07:26:58;;;;;;;15.43;8.75;;;7.50;99.90;;;;;;4971616;28;20050;-68
2021/12/29 07:29:23;;;;;;;16.38;8.60;;;7.50;99.90;;;;;;4962687;28;20584;-68
2021/12/29 07:31:49;;;;;;;17.20;9.45;;;7.50;99.90;;;;;;4962986;28;20055;-68
2021/12/29 07:34:15;;;;;;;16.10;9.50;;;7.50;99.90;;;;;;4968368;28;20089;-69
2021/12/29 07:36:40;;;;;;;16.63;8.75;;;7.50;99.90;;;;;;4968217;28;20442;-68
2021/12/29 07:39:11;;;;;;;17.02;9.20;;;7.50;99.90;;;;;;4957710;28;20054;-68
2021/12/29 07:41:38;;;;;;;19.85;10.00;;;7.60;99.90;;;;;;4966394;28;20063;-68
2021/12/29 07:44:04;;;;;;;17.45;9.88;;;7.50;99.90;;;;;;4966522;28;20169;-68
2021/12/29 07:46:33;;;;;;;15.00;8.38;;;7.50;99.90;;;;;;4967080;28;20027;-68
2021/12/29 07:48:59;;;;;;;16.80;9.15;;;7.60;99.90;;;;;;4961746;28;20403;-68
2021/12/29 07:51:25;;;;;;;19.75;9.77;;;7.60;99.90;;;;;;4956161;28;20165;-69
2021/12/29 07:53:51;;;;;;;19.50;9.30;;;7.60;99.90;;;;;;4965023;28;20027;-68
2021/12/29 07:56:17;;;;;;;21.60;9.68;;;7.60;99.90;;;;;;4968443;28;20023;-68
2021/12/29 07:58:43;;;;;;;18.52;9.90;;;7.60;99.90;;;;;;4960851;28;20045;-68
2021/12/29 08:01:09;;;;;;;21.40;9.88;;;7.60;99.90;;;;;;4967567;28;20374;-68
2021/12/29 08:03:34;;;;;;;16.40;9.82;;;7.60;99.90;;;;;;4971059;28;20041;-68
2021/12/29 08:06:00;;;;;;;17.63;9.63;;;7.60;99.90;;;;;;4971148;28;20086;-68
2021/12/29 08:08:25;;;;;;;19.10;9.27;;;7.60;99.90;;;;;;4970803;28;20029;-69
2021/12/29 08:10:51;;;;;;;15.48;8.63;;;7.70;99.90;;;;;;4970580;28;20097;-68
2021/12/29 08:13:17;;;;;;;18.73;9.23;;;7.70;99.90;;;;;;4963334;28;20037;-69
2021/12/29 08:15:42;;;;;;;15.00;9.13;;;7.70;99.90;;;;;;4969987;28;20082;-69
2021/12/29 08:18:08;;;;;;;16.42;9.02;;;7.70;99.90;;;;;;4960940;28;20057;-69
2021/12/29 08:20:35;;;;;;;17.88;8.75;;;7.70;99.90;;;;;;4972000;28;20121;-69
2021/12/29 08:23:02;;;;;;;22.40;12.10;;;7.80;99.90;;;;;;4965436;28;20046;-69
2021/12/29 08:25:28;;;;;;;19.63;9.98;;;7.80;99.90;;;;;;4968459;28;20045;-68
2021/12/29 08:27:54;;;;;;;16.10;9.85;;;7.80;99.90;;;;;;4970012;28;20027;-68
2021/12/29 08:30:19;;;;;;;15.52;8.75;;;7.80;99.90;;;;;;4968000;28;20565;-68
2021/12/29 08:32:45;;;;;;;15.68;8.43;;;7.80;99.90;;;;;;4956181;28;20418;-68
2021/12/29 08:35:12;;;;;;;20.95;8.65;;;7.90;99.90;;;;;;4971455;28;20065;-68
2021/12/29 08:37:37;;;;;;;17.88;8.38;;;7.90;99.90;;;;;;4967513;28;20031;-72
2021/12/29 08:40:07;;;;;;;16.90;9.25;;;7.90;99.90;;;;;;4956773;28;20556;-73
2021/12/29 08:42:33;;;;;;;18.20;9.43;;;7.90;99.90;;;;;;4970393;28;20676;-72
2021/12/29 08:44:59;;;;;;;19.73;9.68;;;7.90;99.90;;;;;;4971562;28;20042;-70
2021/12/29 08:47:24;;;;;;;21.02;10.18;;;7.90;99.90;;;;;;4966166;28;20092;-70
2021/12/29 08:49:50;;;;;;;17.75;9.32;;;7.90;99.90;;;;;;4968692;28;20909;-72
2021/12/29 08:52:15;;;;;;;23.25;9.73;;;7.90;99.90;;;;;;4967523;28;20034;-71
2021/12/29 08:54:41;;;;;;;15.80;8.95;;;8.00;99.90;;;;;;4966272;28;20026;-71
2021/12/29 08:57:06;;;;;;;18.70;9.70;;;8.00;99.90;;;;;;4966223;28;20394;-70
2021/12/29 08:59:32;;;;;;;19.25;9.63;;;8.00;99.90;;;;;;4960786;28;20478;-70
2021/12/29 09:01:58;;;;;;;17.00;8.98;;;8.00;99.90;;;;;;4973095;28;20640;-70
2021/12/29 09:04:24;;;;;;;15.43;9.35;;;8.00;99.90;;;;;;4972132;28;20042;-70
2021/12/29 09:06:52;;;;;;;18.60;10.18;;;8.00;99.90;;;;;;4974296;28;20055;-71
2021/12/29 09:09:18;;;;;;;17.27;10.32;;;8.10;99.90;;;;;;4972286;28;20113;-71
2021/12/29 09:11:43;;;;;;;18.38;9.65;;;8.10;99.90;;;;;;4973380;28;20089;-71
2021/12/29 09:14:09;;;;;;;20.17;10.95;;;8.10;99.90;;;;;;4970065;28;20031;-70
2021/12/29 09:16:34;;;;;;;16.20;9.45;;;8.10;99.90;;;;;;4973469;28;20038;-70
2021/12/29 09:19:00;;;;;;;18.67;10.10;;;8.10;99.90;;;;;;4972460;28;20022;-70
2021/12/29 09:21:27;;;;;;;17.20;8.98;;;8.10;99.90;;;;;;4971759;28;20030;-71
2021/12/29 09:23:53;;;;;;;19.17;9.50;;;8.20;99.90;;;;;;4973827;28;20466;-70
2021/12/29 09:26:19;;;;;;;17.58;9.45;;;8.20;99.90;;;;;;4975158;28;20019;-70
2021/12/29 09:28:47;;;;;;;17.15;8.80;;;8.20;99.90;;;;;;4973955;28;20031;-70
2021/12/29 09:31:15;;;;;;;21.45;10.45;;;8.20;99.90;;;;;;4973166;28;20116;-70
2021/12/29 09:33:42;;;;;;;20.08;10.27;;;8.20;99.90;;;;;;4974294;28;20027;-71
2021/12/29 09:36:08;;;;;;;20.35;10.85;;;8.30;99.90;;;;;;4973256;28;20527;-70
2021/12/29 09:38:38;;;;;;;19.80;10.13;;;8.30;99.90;;;;;;4964613;28;20115;-70
2021/12/29 09:41:12;;;;;;;19.65;10.65;;;8.30;99.90;;;;;;4963157;28;20066;-70
2021/12/29 09:43:38;;;;;;;24.05;10.48;;;8.30;99.90;;;;;;4973014;28;20039;-70
2021/12/29 09:46:06;;;;;;;18.42;9.70;;;8.40;99.90;;;;;;4974301;28;20027;-70
2021/12/29 09:48:32;;;;;;;17.10;9.23;;;8.40;99.90;;;;;;4969517;28;20050;-70
2021/12/29 09:50:58;;;;;;;22.90;10.57;;;8.40;99.90;;;;;;4971674;28;20185;-71
2021/12/29 09:53:24;;;;;;;24.20;10.55;;;8.40;99.90;;;;;;4969811;28;20023;-70
2021/12/29 09:55:49;;;;;;;27.40;10.40;;;8.50;99.90;;;;;;4970133;28;20386;-71
2021/12/29 09:58:16;;;;;;;17.63;9.15;;;8.50;99.90;;;;;;4973050;28;20026;-71
2021/12/29 10:00:50;;;;;;;21.13;9.25;;;8.50;99.90;;;;;;4952633;28;20589;-70
2021/12/29 10:03:21;;;;;;;18.58;9.90;;;8.60;99.90;;;;;;4966430;28;20158;-70
2021/12/29 10:05:50;;;;;;;17.95;11.27;;;8.50;99.90;;;;;;4972651;28;20027;-71
2021/12/29 10:08:25;;;;;;;19.83;9.68;;;8.60;99.90;;;;;;4971691;28;20045;-69
2021/12/29 10:10:57;;;;;;;19.02;10.32;;;8.60;99.90;;;;;;4971881;28;20070;-70
2021/12/29 10:13:23;;;;;;;18.85;9.93;;;8.60;99.90;;;;;;4972102;28;20041;-70
2021/12/29 10:15:59;;;;;;;16.27;9.70;;;8.60;99.90;;;;;;4972194;28;20039;-70
2021/12/29 10:18:28;;;;;;;20.10;10.35;;;8.60;99.90;;;;;;4972480;28;20026;-70
2021/12/29 10:21:04;;;;;;;20.65;10.88;;;8.60;99.90;;;;;;4972746;28;20045;-70
2021/12/29 10:23:37;;;;;;;23.10;11.18;;;8.60;99.90;;;;;;4973160;28;20054;-70
2021/12/29 10:26:15;;;;;;;21.73;11.25;;;8.60;99.90;;;;;;4974309;28;20039;-70
2021/12/29 10:28:44;;;;;;;15.88;9.93;;;8.60;99.90;;;;;;4960342;28;20139;-68
2021/12/29 10:31:13;;;;;;;20.77;10.88;;;8.60;99.90;;;;;;4963934;28;20031;-68
2021/12/29 10:33:45;;;;;;;18.02;10.23;;;8.70;99.90;;;;;;4969001;28;20031;-69
2021/12/29 10:36:10;;;;;;;20.52;11.52;;;8.70;99.90;;;;;;4963579;28;20023;-70
2021/12/29 10:38:36;;;;;;;19.98;11.10;;;8.80;99.90;;;;;;4973126;28;20037;-70
2021/12/29 10:41:03;;;;;;;18.95;10.30;;;8.80;99.90;;;;;;4972468;28;20138;-69
2021/12/29 10:43:29;;;;;;;21.83;10.95;;;8.80;99.90;;;;;;4972996;28;20089;-69
2021/12/29 10:45:54;;;;;;;19.20;10.80;;;8.90;99.90;;;;;;4972846;28;20035;-69
2021/12/29 10:48:27;;;;;;;21.58;10.35;;;8.90;99.90;;;;;;4973402;28;20058;-69
2021/12/29 10:51:05;;;;;;;21.42;11.23;;;9.00;99.90;;;;;;4972584;28;20049;-69
2021/12/29 10:53:34;;;;;;;16.70;10.68;;;9.00;99.90;;;;;;4974279;28;20026;-69
2021/12/29 10:55:59;;;;;;;19.42;10.43;;;9.00;99.90;;;;;;4962988;28;20504;-68
2021/12/29 10:58:29;;;;;;;20.40;11.40;;;9.00;99.80;;;;;;4972899;28;20118;-69
2021/12/29 11:01:09;;;;;;;17.95;10.60;;;9.10;99.80;;;;;;4968834;28;20102;-69
2021/12/29 11:03:44;;;;;;;19.95;10.90;;;9.00;99.80;;;;;;4964072;28;20111;-68
2021/12/29 11:06:12;;;;;;;22.60;12.75;;;9.10;99.80;;;;;;4967620;28;20050;-68
2021/12/29 11:08:58;;;;;;;21.52;11.23;;;9.00;99.80;;;;;;4972203;28;20417;-68
2021/12/29 11:11:38;;;;;;;22.80;12.10;;;9.00;99.80;;;;;;4970266;28;20090;-68
2021/12/29 11:14:10;;;;;;;22.55;12.10;;;9.10;99.80;;;;;;4973313;28;20094;-68
2021/12/29 11:16:37;;;;;;;22.35;12.10;;;9.00;99.80;;;;;;4973211;28;20062;-69
2021/12/29 11:19:02;;;;;;;16.73;11.48;;;9.00;99.80;;;;;;4972375;28;20031;-69
2021/12/29 11:21:31;;;;;;;20.23;11.93;;;9.00;99.80;;;;;;4968441;28;20042;-69
2021/12/29 11:24:14;;;;;;;21.15;12.73;;;9.00;99.80;;;;;;4965711;28;20114;-68
2021/12/29 11:26:39;;;;;;;25.05;12.98;;;9.00;99.90;;;;;;4972709;28;20027;-69
2021/12/29 11:29:08;;;;;;;23.52;12.57;;;9.00;99.90;;;;;;4972043;28;20037;-70
2021/12/29 11:31:37;;;;;;;24.02;12.23;;;9.00;99.90;;;;;;4972311;28;21867;-69
2021/12/29 11:34:31;;;;;;;27.08;13.35;;;9.00;99.90;;;;;;4973066;28;20030;-70
2021/12/29 11:37:05;;;;;;;24.23;12.85;;;9.00;99.90;;;;;;4958272;28;20050;-70
2021/12/29 11:39:35;;;;;;;24.33;11.95;;;9.00;99.90;;;;;;4968875;28;20073;-70
2021/12/29 11:42:01;;;;;;;21.65;12.00;;;9.00;99.90;;;;;;4968693;28;20027;-70
2021/12/29 11:44:27;;;;;;;22.75;11.85;;;9.00;99.90;;;;;;4971532;28;20375;-70
2021/12/29 11:46:53;;;;;;;19.88;11.13;;;9.00;99.90;;;;;;4971570;28;20035;-70
2021/12/29 11:49:19;;;;;;;24.15;12.65;;;9.00;99.80;;;;;;4969087;28;20027;-71
2021/12/29 11:51:54;;;;;;;21.13;12.23;;;9.00;99.80;;;;;;4968175;28;20062;-70
2021/12/29 11:54:30;;;;;;;21.95;11.90;;;9.10;99.80;;;;;;4972358;28;20506;-69
2021/12/29 11:56:55;;;;;;;24.45;12.98;;;9.10;99.80;;;;;;4971153;28;20105;-69
2021/12/29 11:59:32;;;;;;;21.02;12.00;;;9.00;99.70;;;;;;4980539;28;20026;-69
2021/12/29 12:02:02;;;;;;;29.10;12.13;;;9.10;99.70;;;;;;4954762;28;20487;-69
2021/12/29 12:04:28;;;;;;;19.67;11.63;;;9.10;99.70;;;;;;4966103;28;20422;-69
2021/12/29 12:07:07;;;;;;;20.95;11.27;;;9.00;99.70;;;;;;4971909;28;20035;-69
2021/12/29 12:09:47;;;;;;;23.00;12.43;;;9.00;99.60;;;;;;4953244;28;20491;-69
2021/12/29 12:12:14;;;;;;;27.90;13.30;;;9.10;99.70;;;;;;4953189;28;20039;-70
2021/12/29 12:14:48;;;;;;;24.75;12.52;;;9.10;99.70;;;;;;4958994;28;20058;-70
2021/12/29 12:17:19;;;;;;;23.35;12.73;;;9.00;99.70;;;;;;4963570;28;20031;-70
2021/12/29 12:19:56;;;;;;;21.70;12.63;;;9.00;99.70;;;;;;4963673;28;20486;-70
2021/12/29 12:22:22;;;;;;;24.42;13.10;;;9.00;99.80;;;;;;4972176;28;20046;-69
2021/12/29 12:24:50;;;;;;;26.30;13.18;;;9.00;99.80;;;;;;4968425;28;20043;-70
2021/12/29 12:27:41;;;;;;;25.05;14.38;;;9.00;99.90;;;;;;4966131;28;20074;-69
2021/12/29 12:30:21;;;;;;;24.20;13.52;;;9.00;99.90;;;;;;4968978;28;20137;-70
2021/12/29 12:32:52;;;;;;;24.25;13.05;;;9.00;99.90;;;;;;4971057;28;20491;-70
2021/12/29 12:35:39;;;;;;;27.20;13.65;;;9.00;99.90;;;;;;4957397;28;20486;-70
2021/12/29 12:38:34;;;;;;;28.75;13.40;;;9.10;99.90;;;;;;4971451;28;20043;-69
2021/12/29 12:41:16;;;;;;;27.60;13.05;;;9.10;99.90;;;;;;4953400;28;20527;-69
2021/12/29 12:43:53;;;;;;;24.20;12.90;;;9.10;99.90;;;;;;4952979;28;20554;-69
2021/12/29 12:46:35;;;;;;;29.70;15.32;;;9.10;99.90;;;;;;4953695;28;20513;-69
2021/12/29 12:49:11;;;;;;;27.08;13.65;;;9.10;99.90;;;;;;4952397;28;20105;-69